Time;durP1;ratioP1;P1;durP2;ratioP2;P2;SDS_P1;SDS_P2;PMS_P1;PMS_P2;Temp;Humidity;BMP_temperature;BMP_pressure;BME280_temperature;BME280_humidity;BME280_pressure;Samples;Min_cycle;Max_cycle;Signal;HPM_P1;HPM_P2
2023/05/21 00:02:18;;;;;;;7.93;3.28;;;;;;;14.82;65.74;102122.88;7393856;19;20483;-47
2023/05/21 00:04:46;;;;;;;10.25;3.50;;;;;;;14.79;65.83;102118.59;7392739;19;20032;-51
2023/05/21 00:07:14;;;;;;;6.32;3.33;;;;;;;14.70;66.26;102116.59;7393462;19;20033;-49
2023/05/21 00:09:41;;;;;;;6.22;3.30;;;;;;;14.74;66.16;102115.41;7391009;19;20015;-46
2023/05/21 00:12:09;;;;;;;8.68;2.95;;;;;;;14.72;66.10;102111.97;7393488;19;20047;-49
2023/05/21 00:14:36;;;;;;;6.45;3.20;;;;;;;14.71;66.05;102110.28;7391004;19;20015;-48
2023/05/21 00:17:03;;;;;;;7.80;3.17;;;;;;;14.69;66.05;102122.00;7392277;19;20026;-46
2023/05/21 00:19:32;;;;;;;8.95;3.30;;;;;;;14.66;66.06;102111.59;7390892;19;20023;-51
2023/05/21 00:22:03;;;;;;;6.90;3.08;;;;;;;14.61;66.36;102104.75;7393211;19;20042;-49
2023/05/21 00:24:30;;;;;;;6.18;3.33;;;;;;;14.53;66.55;102098.22;7392490;19;20030;-47
2023/05/21 00:26:57;;;;;;;9.55;3.33;;;;;;;14.50;66.48;102101.97;7391093;19;20021;-47
2023/05/21 00:29:26;;;;;;;9.70;3.30;;;;;;;14.48;66.50;102100.31;7391261;19;20020;-50
2023/05/21 00:31:54;;;;;;;6.82;2.83;;;;;;;14.45;66.67;102097.88;7392760;19;20022;-47
2023/05/21 00:34:22;;;;;;;7.43;3.00;;;;;;;14.41;66.61;102099.03;7390588;19;20022;-46
2023/05/21 00:36:49;;;;;;;6.22;3.42;;;;;;;14.41;66.57;102097.22;7393006;19;20032;-47
2023/05/21 00:39:16;;;;;;;7.95;3.28;;;;;;;14.37;66.68;102090.41;7392753;19;20023;-46
2023/05/21 00:41:45;;;;;;;7.10;2.97;;;;;;;14.34;66.79;102090.59;7392853;19;20555;-47
2023/05/21 00:44:12;;;;;;;8.13;3.38;;;;;;;14.34;66.74;102094.13;7392366;19;20027;-48
2023/05/21 00:46:40;;;;;;;6.53;2.72;;;;;;;14.30;66.97;102095.28;7391633;19;20054;-50
2023/05/21 00:49:10;;;;;;;8.50;3.40;;;;;;;14.28;66.97;102097.22;7390773;19;20018;-50
2023/05/21 00:51:37;;;;;;;10.98;3.70;;;;;;;14.25;67.04;102093.91;7392904;19;20018;-51
2023/05/21 00:54:04;;;;;;;7.25;3.40;;;;;;;14.25;67.08;102088.56;7391722;19;20022;-52
2023/05/21 00:56:32;;;;;;;7.43;3.33;;;;;;;14.21;67.07;102081.75;7389788;19;20872;-50
2023/05/21 00:58:59;;;;;;;9.25;3.15;;;;;;;14.17;67.14;102083.75;7388154;19;20035;-49
2023/05/21 01:01:26;;;;;;;7.82;3.72;;;;;;;14.18;67.08;102079.28;7390062;19;20026;-51
2023/05/21 01:03:56;;;;;;;9.43;3.25;;;;;;;14.15;67.10;102077.66;7391267;19;20017;-52
2023/05/21 01:06:23;;;;;;;7.30;3.53;;;;;;;14.11;67.08;102085.00;7389930;19;20011;-51
2023/05/21 01:08:51;;;;;;;6.85;3.20;;;;;;;14.09;67.17;102078.09;7389042;19;20041;-51
2023/05/21 01:11:20;;;;;;;8.32;3.20;;;;;;;14.11;67.33;102079.69;7391549;19;20029;-50
2023/05/21 01:13:48;;;;;;;7.85;3.35;;;;;;;14.06;67.31;102076.47;7391421;19;20019;-48
2023/05/21 01:16:16;;;;;;;8.23;3.42;;;;;;;14.03;67.34;102067.84;7390194;19;20022;-54
2023/05/21 01:18:43;;;;;;;9.15;3.00;;;;;;;14.02;67.43;102069.66;7390629;19;20130;-52
2023/05/21 01:21:12;;;;;;;8.60;3.40;;;;;;;13.98;67.59;102064.66;7391365;19;20018;-52
2023/05/21 01:23:39;;;;;;;8.30;3.38;;;;;;;13.99;67.51;102069.00;7389977;19;20098;-54
2023/05/21 01:26:07;;;;;;;8.90;3.47;;;;;;;13.95;67.73;102065.69;7389360;19;20015;-51
2023/05/21 01:28:34;;;;;;;9.57;3.47;;;;;;;13.96;67.76;102054.06;7389929;19;20082;-55
2023/05/21 01:31:30;;;;;;;8.57;3.42;;;;;;;14.01;67.59;102059.13;7390787;19;20097;-56
2023/05/21 01:34:02;;;;;;;9.52;2.95;;;;;;;13.92;67.64;102060.56;7389679;19;20018;-53
2023/05/21 01:36:35;;;;;;;9.18;3.20;;;;;;;13.90;67.67;102059.84;7389030;19;20130;-57
2023/05/21 01:39:13;;;;;;;8.55;3.55;;;;;;;13.86;68.02;102051.19;7388972;19;20018;-57
2023/05/21 01:41:43;;;;;;;7.75;3.35;;;;;;;13.81;68.39;102061.31;7391104;19;20019;-58
2023/05/21 01:44:12;;;;;;;8.10;3.55;;;;;;;13.79;68.13;102049.88;7391058;19;20033;-55
2023/05/21 01:46:39;;;;;;;9.27;3.10;;;;;;;13.86;68.06;102061.00;7388115;19;20015;-55
2023/05/21 01:49:07;;;;;;;9.02;3.30;;;;;;;13.82;68.18;102057.69;7389072;19;20023;-57
2023/05/21 01:51:34;;;;;;;7.72;3.33;;;;;;;13.77;68.16;102058.94;7390465;19;20018;-57
2023/05/21 01:54:02;;;;;;;8.35;3.13;;;;;;;13.75;68.21;102050.19;7390143;19;20014;-56
2023/05/21 01:56:32;;;;;;;7.88;3.22;;;;;;;13.70;68.51;102050.50;7387823;19;20018;-54
2023/05/21 01:58:59;;;;;;;8.27;3.30;;;;;;;13.73;68.17;102050.28;7388055;19;20112;-54
2023/05/21 02:01:28;;;;;;;8.13;3.38;;;;;;;13.74;68.11;102048.50;7390316;19;20085;-55
2023/05/21 02:03:56;;;;;;;7.32;3.30;;;;;;;13.71;68.44;102054.03;7390427;19;20035;-50
2023/05/21 02:06:24;;;;;;;7.47;3.28;;;;;;;13.69;68.55;102050.59;7388171;19;20018;-54
2023/05/21 02:08:51;;;;;;;7.05;3.20;;;;;;;13.68;68.59;102048.91;7389296;19;20029;-54
2023/05/21 02:11:18;;;;;;;5.90;3.30;;;;;;;13.73;68.23;102044.97;7395839;19;20479;-50
2023/05/21 02:13:45;;;;;;;7.65;3.42;;;;;;;13.72;68.48;102045.06;7397479;19;20015;-56
2023/05/21 02:16:14;;;;;;;7.60;3.05;;;;;;;13.76;68.29;102046.56;7394529;19;20035;-54
2023/05/21 02:18:45;;;;;;;9.00;3.05;;;;;;;13.78;68.21;102050.00;7396852;19;20034;-53
2023/05/21 02:21:12;;;;;;;8.77;3.25;;;;;;;13.72;68.26;102045.06;7397505;19;20518;-50
2023/05/21 02:23:40;;;;;;;5.28;2.90;;;;;;;13.71;68.32;102038.06;7397433;19;20052;-51
2023/05/21 02:26:08;;;;;;;10.13;3.20;;;;;;;13.69;68.29;102043.47;7394502;19;20092;-51
2023/05/21 02:28:35;;;;;;;7.63;2.90;;;;;;;13.65;68.38;102037.47;7396311;19;20515;-53
2023/05/21 02:31:02;;;;;;;7.15;3.40;;;;;;;13.61;68.36;102037.78;7397593;19;20038;-52
2023/05/21 02:33:29;;;;;;;6.13;2.75;;;;;;;13.52;68.77;102031.28;7396371;19;20043;-51
2023/05/21 02:35:57;;;;;;;9.30;3.30;;;;;;;13.51;68.68;102034.06;7394649;19;20022;-50
2023/05/21 02:38:24;;;;;;;7.00;3.03;;;;;;;13.50;68.41;102034.97;7396215;19;20464;-53
2023/05/21 02:40:51;;;;;;;7.28;2.85;;;;;;;13.49;68.51;102036.78;7395654;19;20011;-54
2023/05/21 02:43:19;;;;;;;7.88;3.28;;;;;;;13.52;68.29;102033.09;7396747;19;20088;-55
2023/05/21 02:45:46;;;;;;;7.75;3.15;;;;;;;13.54;68.05;102039.16;7391532;19;20018;-55
2023/05/21 02:48:13;;;;;;;9.18;3.47;;;;;;;13.54;68.17;102040.00;7393451;19;20022;-53
2023/05/21 02:50:40;;;;;;;7.97;3.17;;;;;;;13.53;68.20;102048.94;7392161;19;20380;-54
2023/05/21 02:53:08;;;;;;;7.72;3.20;;;;;;;13.52;68.09;102038.41;7396522;19;20025;-51
2023/05/21 02:55:35;;;;;;;8.10;3.33;;;;;;;13.49;67.95;102028.81;7394353;19;20495;-52
2023/05/21 02:58:02;;;;;;;9.18;2.95;;;;;;;13.46;68.15;102034.31;7396414;19;20042;-52
2023/05/21 03:00:29;;;;;;;8.63;3.20;;;;;;;13.52;68.15;102033.09;7395628;19;20018;-54
2023/05/21 03:02:57;;;;;;;7.40;3.13;;;;;;;13.52;68.55;102033.09;7395973;19;20010;-54
2023/05/21 03:05:24;;;;;;;10.32;3.30;;;;;;;13.57;68.80;102036.28;7394231;19;20019;-52
2023/05/21 03:07:52;;;;;;;9.63;3.65;;;;;;;13.49;69.41;102031.47;7395962;19;20034;-52
2023/05/21 03:10:19;;;;;;;8.15;3.17;;;;;;;13.39;70.23;102033.91;7393149;19;20015;-52
2023/05/21 03:12:46;;;;;;;7.25;3.08;;;;;;;13.38;70.76;102045.47;7393974;19;20026;-52
2023/05/21 03:15:13;;;;;;;9.75;3.53;;;;;;;13.29;71.05;102027.44;7393692;19;20335;-52
2023/05/21 03:17:41;;;;;;;9.40;3.33;;;;;;;13.29;71.34;102030.13;7395403;19;20045;-52
2023/05/21 03:20:14;;;;;;;7.18;3.50;;;;;;;13.26;71.57;102019.66;7388484;19;20014;-54
2023/05/21 03:22:43;;;;;;;9.43;3.60;;;;;;;13.24;71.95;102020.69;7393641;19;20077;-53
2023/05/21 03:25:11;;;;;;;8.73;3.08;;;;;;;13.22;72.09;102019.94;7393323;19;20019;-54
2023/05/21 03:27:38;;;;;;;7.55;3.08;;;;;;;13.16;72.08;102007.88;7394168;19;20022;-53
2023/05/21 03:30:06;;;;;;;10.05;3.25;;;;;;;13.10;72.47;102010.94;7391105;19;20014;-54
2023/05/21 03:32:36;;;;;;;9.50;3.50;;;;;;;13.09;72.56;102010.09;7394957;19;20365;-54
2023/05/21 03:35:04;;;;;;;8.50;3.33;;;;;;;13.10;72.33;102009.13;7393163;19;20018;-53
2023/05/21 03:37:31;;;;;;;9.57;3.50;;;;;;;13.13;72.46;102010.75;7394514;19;20014;-53
2023/05/21 03:39:58;;;;;;;11.15;3.28;;;;;;;13.16;72.08;102015.84;7393524;19;20048;-53
2023/05/21 03:42:26;;;;;;;9.73;3.45;;;;;;;13.15;72.46;102011.50;7394497;19;20018;-52
2023/05/21 03:44:53;;;;;;;8.60;3.33;;;;;;;13.17;72.10;102006.94;7391367;19;20028;-53
2023/05/21 03:47:20;;;;;;;7.70;3.30;;;;;;;13.19;72.08;102018.31;7395145;19;20018;-54
2023/05/21 03:49:47;;;;;;;6.60;3.42;;;;;;;13.27;71.95;102017.84;7390406;19;20043;-52
2023/05/21 03:52:14;;;;;;;9.68;3.65;;;;;;;13.27;71.79;102012.53;7393942;19;20090;-54
2023/05/21 03:54:41;;;;;;;8.23;3.08;;;;;;;13.30;72.12;102009.69;7392953;19;20033;-53
2023/05/21 03:57:08;;;;;;;7.30;3.08;;;;;;;13.34;71.86;102011.19;7392041;19;20514;-53
2023/05/21 03:59:35;;;;;;;10.23;3.33;;;;;;;13.33;72.03;102014.81;7392556;19;20527;-51
2023/05/21 04:02:03;;;;;;;10.38;3.58;;;;;;;13.30;71.90;102013.19;7393572;19;20036;-53
2023/05/21 04:04:32;;;;;;;8.35;3.22;;;;;;;13.27;72.20;102016.03;7392983;19;20023;-54
2023/05/21 04:06:59;;;;;;;7.80;3.33;;;;;;;13.28;72.49;102017.78;7392758;19;20007;-53
2023/05/21 04:09:26;;;;;;;8.73;3.50;;;;;;;13.25;72.38;102020.63;7391926;19;20093;-55
2023/05/21 04:11:54;;;;;;;6.25;2.92;;;;;;;13.22;72.54;102023.44;7393473;19;20031;-54
2023/05/21 04:14:22;;;;;;;10.55;3.60;;;;;;;13.15;72.46;102019.47;7390961;19;20096;-51
2023/05/21 04:16:49;;;;;;;7.68;3.00;;;;;;;13.25;72.06;102015.31;7393070;19;20010;-52
2023/05/21 04:19:16;;;;;;;11.63;3.45;;;;;;;13.22;72.18;102020.78;7392432;19;20090;-51
2023/05/21 04:21:43;;;;;;;11.20;3.65;;;;;;;13.17;72.21;102017.56;7393172;19;20015;-54
2023/05/21 04:24:10;;;;;;;9.02;3.30;;;;;;;13.18;71.93;102016.63;7392843;19;20018;-54
2023/05/21 04:26:41;;;;;;;9.27;3.60;;;;;;;13.18;72.16;102020.13;7388544;19;20022;-52
2023/05/21 04:29:08;;;;;;;7.78;3.50;;;;;;;13.21;72.08;102016.44;7391983;19;20022;-56
2023/05/21 04:31:35;;;;;;;8.55;2.92;;;;;;;13.21;71.92;102016.44;7392073;19;20091;-55
2023/05/21 04:34:03;;;;;;;9.75;3.60;;;;;;;13.15;72.23;102019.47;7390498;19;20019;-53
2023/05/21 04:36:32;;;;;;;8.20;3.42;;;;;;;13.14;72.16;102018.63;7388307;19;20010;-53
2023/05/21 04:39:00;;;;;;;6.22;2.88;;;;;;;13.12;72.26;102014.34;7389886;19;20020;-55
2023/05/21 04:41:27;;;;;;;9.77;3.15;;;;;;;13.12;72.00;102020.50;7392352;19;20047;-54
2023/05/21 04:43:55;;;;;;;7.63;2.97;;;;;;;13.13;71.81;102013.41;7392704;19;20025;-51
2023/05/21 04:46:25;;;;;;;7.82;2.95;;;;;;;13.16;72.06;102013.19;7389895;19;20026;-54
2023/05/21 04:48:55;;;;;;;10.85;3.30;;;;;;;13.20;71.62;102019.16;7391649;19;20014;-55
2023/05/21 04:51:25;;;;;;;11.88;3.30;;;;;;;13.16;71.67;102019.38;7391436;19;20014;-55
2023/05/21 04:53:53;;;;;;;10.30;3.45;;;;;;;13.15;71.48;102014.16;7392572;19;20028;-55
2023/05/21 04:56:25;;;;;;;9.55;3.20;;;;;;;13.21;71.45;102015.56;7389980;19;20026;-56
2023/05/21 04:58:53;;;;;;;8.88;3.20;;;;;;;13.25;71.45;102023.28;7389800;19;20022;-56
2023/05/21 05:01:25;;;;;;;8.15;3.35;;;;;;;13.28;71.52;102011.56;7392046;19;20081;-57
2023/05/21 05:03:53;;;;;;;7.50;3.00;;;;;;;13.30;71.20;102007.03;7392346;19;20015;-57
2023/05/21 05:06:21;;;;;;;9.52;3.42;;;;;;;13.28;71.19;102009.78;7390086;19;20022;-55
2023/05/21 05:08:48;;;;;;;11.18;3.22;;;;;;;13.33;71.18;102005.00;7390959;19;20138;-53
2023/05/21 05:11:15;;;;;;;9.00;3.55;;;;;;;13.37;71.11;102003.00;7390459;19;20019;-53
2023/05/21 05:13:43;;;;;;;9.45;3.28;;;;;;;13.39;70.94;102009.94;7392125;19;20019;-53
2023/05/21 05:16:11;;;;;;;9.20;3.15;;;;;;;13.41;71.37;102000.03;7389411;19;20015;-54
2023/05/21 05:18:38;;;;;;;9.10;3.22;;;;;;;13.40;71.14;101994.84;7390885;19;20022;-54
2023/05/21 05:21:06;;;;;;;7.63;3.10;;;;;;;13.47;70.65;101996.13;7392165;19;20029;-55
2023/05/21 05:23:33;;;;;;;8.20;3.22;;;;;;;13.52;70.35;101990.50;7391012;19;20035;-54
2023/05/21 05:26:00;;;;;;;9.93;3.33;;;;;;;13.58;70.01;101985.63;7387635;19;20090;-55
2023/05/21 05:28:27;;;;;;;9.80;3.40;;;;;;;13.57;70.41;101985.72;7390593;19;20429;-53
2023/05/21 05:30:54;;;;;;;6.47;3.13;;;;;;;13.63;70.12;101994.16;7388135;19;20483;-53
2023/05/21 05:33:22;;;;;;;7.28;3.20;;;;;;;13.69;69.98;101995.53;7391268;19;20039;-54
2023/05/21 05:35:49;;;;;;;6.97;3.00;;;;;;;13.74;69.60;101998.78;7389405;19;20021;-54
2023/05/21 05:38:16;;;;;;;7.55;3.22;;;;;;;13.76;69.62;101996.84;7390633;19;20029;-53
2023/05/21 05:40:43;;;;;;;7.82;3.35;;;;;;;13.73;69.93;101993.53;7389950;19;20029;-53
2023/05/21 05:43:10;;;;;;;8.60;3.35;;;;;;;13.79;69.87;101993.13;7390430;19;20021;-55
2023/05/21 05:45:37;;;;;;;6.55;3.30;;;;;;;13.80;69.77;101993.00;7386260;19;20010;-55
2023/05/21 05:48:05;;;;;;;9.63;3.42;;;;;;;13.82;69.91;101987.59;7390563;19;20550;-53
2023/05/21 05:50:32;;;;;;;10.05;3.50;;;;;;;13.87;70.11;101983.66;7387921;19;20022;-55
2023/05/21 05:53:00;;;;;;;8.13;3.33;;;;;;;13.93;70.01;101987.72;7390041;19;20027;-56
2023/05/21 05:55:27;;;;;;;8.90;3.42;;;;;;;13.98;70.39;101987.41;7388797;19;20520;-54
2023/05/21 05:57:54;;;;;;;9.30;3.90;;;;;;;14.02;70.11;101992.41;7389645;19;20054;-54
2023/05/21 06:00:21;;;;;;;7.95;3.22;;;;;;;14.08;70.11;101983.13;7389786;19;20026;-55
2023/05/21 06:02:49;;;;;;;6.90;3.58;;;;;;;14.11;70.03;101973.13;7389749;19;20035;-56
2023/05/21 06:05:16;;;;;;;9.73;3.45;;;;;;;14.20;69.82;101981.47;7388834;19;20019;-53
2023/05/21 06:07:43;;;;;;;8.40;3.78;;;;;;;14.18;70.05;101978.03;7390450;19;20023;-55
2023/05/21 06:10:10;;;;;;;8.48;3.67;;;;;;;14.24;70.10;101980.28;7388836;19;20014;-55
2023/05/21 06:12:37;;;;;;;8.18;3.40;;;;;;;14.29;70.00;101976.34;7388437;19;20043;-55
2023/05/21 06:15:05;;;;;;;8.52;3.38;;;;;;;14.33;69.82;101977.81;7388369;19;20028;-54
2023/05/21 06:17:32;;;;;;;8.85;3.53;;;;;;;14.34;69.97;101979.53;7389742;19;20017;-55
2023/05/21 06:19:59;;;;;;;8.05;3.70;;;;;;;14.38;70.14;101983.72;7387359;19;20134;-55
2023/05/21 06:22:27;;;;;;;8.82;3.58;;;;;;;14.44;70.16;101977.06;7387967;19;20076;-54
2023/05/21 06:24:54;;;;;;;9.85;3.60;;;;;;;14.53;70.00;101973.78;7388444;19;20027;-53
2023/05/21 06:27:21;;;;;;;10.23;4.05;;;;;;;14.59;69.78;101975.19;7388724;19;20018;-55
2023/05/21 06:29:48;;;;;;;9.35;3.95;;;;;;;14.63;69.87;101982.00;7388997;19;20043;-54
2023/05/21 06:32:15;;;;;;;7.85;3.67;;;;;;;14.69;69.95;101986.91;7389127;19;20039;-54
2023/05/21 06:34:43;;;;;;;8.77;3.92;;;;;;;14.73;69.89;101991.06;7388575;19;20014;-54
2023/05/21 06:37:10;;;;;;;10.55;4.07;;;;;;;14.84;69.70;101984.91;7389698;19;20019;-54
2023/05/21 06:39:37;;;;;;;9.10;4.25;;;;;;;14.95;69.37;101984.16;7388353;19;20021;-55
2023/05/21 06:42:04;;;;;;;9.00;4.30;;;;;;;15.01;69.10;101978.38;7387897;19;20029;-54
2023/05/21 06:44:31;;;;;;;10.32;4.20;;;;;;;15.02;69.47;101977.41;7386811;19;20044;-56
2023/05/21 06:46:58;;;;;;;9.63;4.57;;;;;;;15.05;68.88;101977.19;7386691;19;20018;-55
2023/05/21 06:49:25;;;;;;;10.35;4.70;;;;;;;15.09;68.86;101971.50;7387962;19;20115;-53
2023/05/21 06:51:53;;;;;;;11.10;4.88;;;;;;;15.18;68.97;101969.13;7387394;19;20015;-55
2023/05/21 06:54:20;;;;;;;8.70;4.28;;;;;;;15.25;68.91;101970.38;7388180;19;20015;-56
2023/05/21 06:56:47;;;;;;;7.47;4.10;;;;;;;15.29;68.58;101967.38;7388675;19;20049;-56
2023/05/21 06:59:14;;;;;;;8.10;4.30;;;;;;;15.34;68.62;101967.91;7394940;19;20494;-54
2023/05/21 07:01:42;;;;;;;11.85;5.18;;;;;;;15.45;68.20;101972.41;7396415;19;20014;-55
2023/05/21 07:04:10;;;;;;;9.27;4.60;;;;;;;15.53;68.27;101970.06;7395853;19;20039;-54
2023/05/21 07:06:37;;;;;;;9.35;4.97;;;;;;;15.63;68.59;101974.69;7390673;19;20535;-54
2023/05/21 07:09:04;;;;;;;12.35;5.20;;;;;;;15.72;68.54;101968.66;7393432;19;20043;-57
2023/05/21 07:11:32;;;;;;;13.90;5.57;;;;;;;15.83;68.14;101964.25;7393620;19;20022;-56
2023/05/21 07:14:00;;;;;;;9.93;5.82;;;;;;;15.86;67.91;101960.47;7393810;19;20018;-54
2023/05/21 07:16:27;;;;;;;10.70;5.80;;;;;;;15.89;67.90;101962.91;7392100;19;20014;-55
2023/05/21 07:18:54;;;;;;;12.70;6.07;;;;;;;15.94;67.43;101958.03;7394833;19;20015;-55
2023/05/21 07:21:23;;;;;;;12.52;6.20;;;;;;;15.98;67.46;101956.84;7395470;19;20039;-56
2023/05/21 07:23:50;;;;;;;10.25;5.90;;;;;;;16.07;67.69;101956.13;7395558;19;20022;-54
2023/05/21 07:26:17;;;;;;;11.63;5.97;;;;;;;16.11;67.51;101950.56;7393129;19;20015;-56
2023/05/21 07:28:44;;;;;;;11.60;5.95;;;;;;;16.13;67.61;101951.28;7393923;19;20018;-56
2023/05/21 07:31:12;;;;;;;11.07;6.25;;;;;;;16.15;67.60;101954.69;7393179;19;20039;-56
2023/05/21 07:33:39;;;;;;;11.15;6.50;;;;;;;16.19;67.36;101956.16;7395170;19;20022;-56
2023/05/21 07:36:06;;;;;;;13.85;7.00;;;;;;;16.20;67.33;101956.03;7393000;19;20095;-57
2023/05/21 07:38:34;;;;;;;13.82;6.90;;;;;;;16.26;67.15;101952.88;7394148;19;20027;-55
2023/05/21 07:41:01;;;;;;;11.10;6.82;;;;;;;16.30;67.17;101950.81;7394751;19;20018;-53
2023/05/21 07:43:28;;;;;;;14.10;7.65;;;;;;;16.38;67.18;101940.38;7394597;19;20014;-55
2023/05/21 07:45:55;;;;;;;13.02;7.45;;;;;;;16.43;67.13;101943.50;7391785;19;20114;-50
2023/05/21 07:48:22;;;;;;;12.40;7.70;;;;;;;16.49;67.31;101936.84;7392581;19;20527;-51
2023/05/21 07:50:51;;;;;;;16.42;7.68;;;;;;;16.50;67.12;101947.41;7393423;19;20029;-53
2023/05/21 07:53:18;;;;;;;11.57;7.05;;;;;;;16.53;67.31;101947.16;7389829;19;20495;-51
2023/05/21 07:55:46;;;;;;;13.73;7.97;;;;;;;16.61;67.39;101943.03;7392458;19;20022;-57
2023/05/21 07:58:16;;;;;;;11.93;7.50;;;;;;;16.71;67.22;101952.88;7394644;19;20043;-55
2023/05/21 08:00:45;;;;;;;13.27;8.35;;;;;;;16.75;67.26;101943.66;7392492;19;20023;-52
2023/05/21 08:03:16;;;;;;;12.75;8.02;;;;;;;16.80;67.00;101935.25;7392575;19;20460;-54
2023/05/21 08:05:47;;;;;;;12.52;8.32;;;;;;;16.84;66.81;101933.19;7391723;19;20039;-49
2023/05/21 08:08:16;;;;;;;13.30;8.43;;;;;;;16.89;66.80;101933.66;7393446;19;20024;-54
2023/05/21 08:10:43;;;;;;;14.70;8.55;;;;;;;16.95;66.56;101933.16;7391906;19;20014;-53
2023/05/21 08:13:11;;;;;;;16.40;8.65;;;;;;;16.96;66.37;101935.69;7393265;19;20014;-51
2023/05/21 08:15:39;;;;;;;14.40;8.43;;;;;;;17.02;66.57;101932.53;7391357;19;20022;-52
2023/05/21 08:18:06;;;;;;;15.00;9.05;;;;;;;17.06;66.58;101935.81;7393551;19;20697;-53
2023/05/21 08:20:33;;;;;;;15.85;9.13;;;;;;;17.10;66.07;101928.38;7392769;19;20014;-54
2023/05/21 08:23:00;;;;;;;14.82;9.00;;;;;;;17.10;66.15;101926.53;7392114;19;20015;-53
2023/05/21 08:25:27;;;;;;;14.35;8.90;;;;;;;17.19;65.94;101923.09;7391505;19;20491;-52
2023/05/21 08:27:55;;;;;;;13.75;9.13;;;;;;;17.26;65.90;101923.44;7391932;19;20023;-52
2023/05/21 08:30:22;;;;;;;16.25;9.85;;;;;;;17.34;66.21;101920.13;7391724;19;20484;-55
2023/05/21 08:32:49;;;;;;;14.13;9.50;;;;;;;17.43;65.76;101928.22;7391733;19;20026;-54
2023/05/21 08:35:16;;;;;;;14.77;9.65;;;;;;;17.54;65.41;101930.84;7389893;19;20018;-51
2023/05/21 08:37:43;;;;;;;14.98;10.02;;;;;;;17.58;65.43;101933.28;7392581;19;20039;-51
2023/05/21 08:40:11;;;;;;;14.15;10.05;;;;;;;17.58;65.49;101928.75;7391493;19;20035;-50
2023/05/21 08:42:43;;;;;;;16.17;10.02;;;;;;;17.67;65.28;101933.34;7392802;19;20534;-52
2023/05/21 08:45:12;;;;;;;15.90;9.60;;;;;;;17.73;65.78;101930.13;7391263;19;20108;-49
2023/05/21 08:47:42;;;;;;;14.90;10.52;;;;;;;17.82;65.17;101927.69;7392105;19;20022;-51
2023/05/21 08:50:12;;;;;;;17.08;10.45;;;;;;;17.90;64.96;101926.06;7391755;19;20019;-50
2023/05/21 08:52:40;;;;;;;16.20;10.40;;;;;;;17.96;64.65;101925.50;7390390;19;20023;-52
2023/05/21 08:55:09;;;;;;;14.55;11.15;;;;;;;18.03;64.92;101921.31;7390921;19;20079;-48
2023/05/21 08:57:36;;;;;;;16.45;11.65;;;;;;;18.09;64.53;101925.31;7392160;19;20029;-51
2023/05/21 09:00:06;;;;;;;16.67;11.52;;;;;;;18.07;64.41;101919.22;7390632;19;20019;-53
2023/05/21 09:02:33;;;;;;;17.85;11.13;;;;;;;18.10;64.62;101923.50;7391897;19;20070;-54
2023/05/21 09:05:02;;;;;;;16.08;11.32;;;;;;;18.13;64.42;101916.03;7391075;19;20031;-54
2023/05/21 09:07:30;;;;;;;17.80;10.93;;;;;;;18.14;64.49;101917.72;7389504;19;20019;-54
2023/05/21 09:10:03;;;;;;;14.25;10.80;;;;;;;18.15;64.46;101918.56;7391378;19;20018;-53
2023/05/21 09:12:31;;;;;;;;;;;;;;;18.09;64.39;101916.44;7391011;19;20498;-54
2023/05/21 09:15:00;;;;;;;16.52;12.05;;;;;;;17.96;65.08;101911.28;7389786;19;19926;-53
2023/05/21 09:17:27;;;;;;;17.48;11.20;;;;;;;17.99;65.40;101913.69;7390445;19;20022;-53
2023/05/21 09:20:08;;;;;;;17.45;11.95;;;;;;;18.11;64.87;101912.63;7388570;19;20022;-53
2023/05/21 09:22:39;;;;;;;16.52;11.57;;;;;;;18.11;65.26;101920.66;7391870;19;20089;-54
2023/05/21 09:25:07;;;;;;;16.33;12.50;;;;;;;18.22;65.29;101917.88;7389759;19;20022;-54
2023/05/21 09:27:35;;;;;;;17.70;11.95;;;;;;;18.40;64.39;101914.59;7393816;19;20074;-53
2023/05/21 09:30:04;;;;;;;16.52;12.35;;;;;;;18.48;64.35;101910.22;7390209;19;20014;-54
2023/05/21 09:32:31;;;;;;;16.02;11.75;;;;;;;18.57;64.56;101910.41;7389821;19;20021;-53
2023/05/21 09:35:06;;;;;;;19.58;11.65;;;;;;;18.67;64.32;101909.44;7388880;19;20418;-54
2023/05/21 09:37:46;;;;;;;16.33;12.00;;;;;;;18.76;64.21;101899.75;7391210;19;20029;-53
2023/05/21 09:40:18;;;;;;;14.77;11.30;;;;;;;18.83;64.14;101898.19;7389774;19;20019;-54
2023/05/21 09:42:50;;;;;;;17.75;12.10;;;;;;;18.91;64.09;101905.56;7390528;19;20035;-54
2023/05/21 09:45:22;;;;;;;16.08;12.05;;;;;;;19.02;63.98;101901.91;7386956;19;20014;-52
2023/05/21 09:47:51;;;;;;;17.40;12.07;;;;;;;19.07;63.83;101907.69;7390521;19;20026;-52
2023/05/21 09:50:19;;;;;;;16.67;11.63;;;;;;;19.08;63.41;101904.00;7388054;19;20019;-53
2023/05/21 09:52:49;;;;;;;17.70;11.32;;;;;;;19.13;63.53;101899.09;7388807;19;20019;-51
2023/05/21 09:55:16;;;;;;;17.02;11.68;;;;;;;19.16;63.43;101898.81;7388005;19;20019;-53
2023/05/21 09:57:45;;;;;;;16.95;11.63;;;;;;;19.20;63.26;101892.16;7391036;19;20099;-53
2023/05/21 10:00:21;;;;;;;17.63;12.40;;;;;;;19.27;63.05;101898.66;7389996;19;20074;-54
2023/05/21 10:02:53;;;;;;;16.75;11.95;;;;;;;19.29;62.60;101899.38;7388646;19;20058;-54
2023/05/21 10:05:26;;;;;;;17.30;12.55;;;;;;;19.29;62.96;101890.47;7388643;19;20047;-52
2023/05/21 10:08:01;;;;;;;15.70;11.02;;;;;;;19.32;62.95;101884.81;7388305;19;20025;-52
2023/05/21 10:10:30;;;;;;;17.48;11.90;;;;;;;19.33;63.08;101879.28;7388324;19;20099;-52
2023/05/21 10:13:05;;;;;;;18.45;12.13;;;;;;;19.44;62.83;101884.50;7388116;19;20056;-54
2023/05/21 10:15:44;;;;;;;15.93;11.65;;;;;;;19.53;62.51;101877.41;7388240;19;20039;-51
2023/05/21 10:18:14;;;;;;;17.75;11.75;;;;;;;19.55;62.48;101878.13;7389226;19;20025;-52
2023/05/21 10:20:41;;;;;;;15.90;11.88;;;;;;;19.60;61.90;101875.84;7389170;19;20099;-54
2023/05/21 10:23:09;;;;;;;16.38;11.93;;;;;;;19.58;61.52;101867.09;7389796;19;20030;-53
2023/05/21 10:25:36;;;;;;;19.00;12.55;;;;;;;19.65;61.59;101867.38;7388426;19;20023;-52
2023/05/21 10:28:05;;;;;;;19.05;11.93;;;;;;;19.71;61.14;101867.66;7389312;19;20023;-53
2023/05/21 10:30:35;;;;;;;17.58;11.63;;;;;;;19.79;61.70;101866.94;7388143;19;20531;-53
2023/05/21 10:33:03;;;;;;;17.10;12.02;;;;;;;19.87;61.44;101866.19;7390948;19;20022;-52
2023/05/21 10:35:32;;;;;;;18.45;11.93;;;;;;;19.93;62.02;101868.31;7394828;19;20018;-52
2023/05/21 10:38:03;;;;;;;15.85;11.60;;;;;;;19.99;61.64;101859.63;7396608;19;20389;-52
2023/05/21 10:40:30;;;;;;;16.38;11.35;;;;;;;19.98;61.76;101863.31;7394857;19;20022;-54
2023/05/21 10:43:13;;;;;;;19.95;12.40;;;;;;;20.09;61.00;101856.91;7396479;19;20021;-53
2023/05/21 10:45:54;;;;;;;16.30;11.85;;;;;;;20.05;61.46;101858.22;7394226;19;20039;-52
2023/05/21 10:48:28;;;;;;;16.40;11.65;;;;;;;20.12;61.90;101854.78;7395251;19;20479;-52
2023/05/21 10:51:03;;;;;;;;;;;;;;;20.08;61.41;101866.84;7395596;19;20031;-54
2023/05/21 10:53:47;;;;;;;16.13;11.52;;;;;;;20.14;61.57;101852.78;7395641;19;19923;-54
2023/05/21 10:56:21;;;;;;;17.25;11.95;;;;;;;20.25;61.22;101858.97;7393124;19;20014;-53
2023/05/21 10:59:14;;;;;;;17.13;12.45;;;;;;;20.41;60.61;101848.38;7395046;19;20018;-54
2023/05/21 11:01:41;;;;;;;15.95;11.10;;;;;;;20.36;60.85;101846.16;7396344;19;20014;-53
2023/05/21 11:04:11;;;;;;;18.88;11.90;;;;;;;20.45;60.84;101847.97;7395306;19;20014;-53
2023/05/21 11:06:38;;;;;;;18.80;12.77;;;;;;;20.52;60.23;101840.16;7392375;19;20039;-53
2023/05/21 11:09:12;;;;;;;15.95;11.43;;;;;;;20.51;60.62;101851.06;7394108;19;20029;-50
2023/05/21 11:11:56;;;;;;;17.13;11.93;;;;;;;20.66;60.69;101842.31;7395122;19;20022;-54
2023/05/21 11:14:38;;;;;;;16.52;11.90;;;;;;;20.58;60.60;101844.94;7394786;19;20029;-53
2023/05/21 11:17:14;;;;;;;17.52;12.30;;;;;;;20.60;60.64;101840.22;7395477;19;20019;-53
2023/05/21 11:19:46;;;;;;;16.30;11.70;;;;;;;20.64;60.45;101838.94;7395665;19;20016;-56
2023/05/21 11:22:24;;;;;;;17.02;11.80;;;;;;;20.66;60.85;101828.03;7395272;19;20514;-52
2023/05/21 11:24:53;;;;;;;16.77;11.90;;;;;;;20.64;60.73;101830.88;7394145;19;20015;-52
2023/05/21 11:27:40;;;;;;;18.75;11.93;;;;;;;20.68;60.88;101834.09;7395503;19;20014;-52